Latest Weather Observations for Barrow Island

IDW60801

Issued at 7:05 pm WST Sunday 20 April 2014 (issued every 30 minutes, with the page automatically refreshed every 10 minutes)

About weather observations | Map of weather stations | Latest weather observations for WA | Other Formats
Station Details ID: 005094 Name: BARROW ISLAND AIRPORT Lat: -20.88 Lon: 115.41 Height: 6.4 m
Data from the previous 72 hours. | See also: Recent months at Barrow Island
Date/Time
WST
Temp
°C
App
Temp
°C
Dew
Point
Rel
Hum
%
Delta-T
°C
Wind Press
QNH
hPa
Press
MSL
hPa
Rain
since 9 am
mm
Dir
 
Spd
km/h
Gust
km/h
Spd
kts
Gust
kts
20/07:00pm 27.6 28.7 20.4 65 4.7 WNW 15 17 8 9 1010.3 - 0.0
20/06:30pm 28.6 29.4 20.6 62 5.3 WNW 17 20 9 11 1010.2 - 0.0
20/06:00pm 29.7 30.2 20.0 56 6.4 W 17 20 9 11 1010.1 1010.1 0.0
20/05:30pm 31.2 30.7 17.9 45 8.5 W 17 20 9 11 1009.9 - 0.0
20/05:00pm 32.5 30.1 12.7 30 11.8 WSW 17 20 9 11 1009.8 - 0.0
20/04:30pm 32.8 31.2 13.9 31 11.5 SW 15 17 8 9 1009.7 - 0.0
20/04:00pm 32.2 30.5 15.7 37 10.3 SSW 19 20 10 11 1009.6 - 0.0
20/03:30pm 33.5 31.6 13.0 29 12.3 SSW 15 19 8 10 1009.5 - 0.0
20/03:00pm 32.6 31.0 15.1 34 10.8 SSW 17 19 9 10 1009.4 1009.4 0.0
20/02:30pm 32.4 31.7 15.4 36 10.5 S 13 15 7 8 1009.6 - 0.0
20/02:00pm 31.0 31.7 17.0 43 8.9 S 9 11 5 6 1009.8 - 0.0
20/01:30pm 30.7 32.3 20.0 52 7.1 S 11 13 6 7 1010.1 - 0.0
20/01:00pm 30.8 31.9 18.8 48 7.8 S 11 13 6 7 1010.5 - 0.0
20/12:30pm 31.9 33.3 19.5 47 8.2 SSE 11 13 6 7 1010.8 - 0.0
20/12:00pm 30.6 31.6 17.7 46 8.2 SE 9 11 5 6 1011.4 1011.4 0.0
20/11:30am 30.4 31.1 17.1 44 8.4 SE 9 11 5 6 1011.8 - 0.0
20/11:00am 29.9 30.3 16.3 43 8.5 SE 9 11 5 6 1012.2 - 0.0
20/10:30am 30.7 31.1 16.3 42 9.0 SE 9 11 5 6 1012.4 - 0.0
20/10:00am 30.2 29.7 15.9 42 8.9 SSE 13 15 7 8 1012.6 - 0.0
20/09:30am 29.6 29.6 17.1 47 7.9 SE 13 15 7 8 1012.5 - 0.0
20/09:00am 29.5 28.8 16.3 45 8.2 SSE 15 19 8 10 1012.6 1012.6 0.0
20/08:30am 29.1 28.1 16.6 46 7.8 SE 17 20 9 11 1012.5 - 0.0
20/08:00am 28.6 27.8 17.2 50 7.2 S 17 19 9 10 1012.5 - 0.0
20/07:30am 27.7 27.5 17.5 53 6.4 SSE 15 19 8 10 1012.2 - 0.0
20/07:00am 26.9 26.6 18.2 59 5.5 SSE 17 19 9 10 1012.2 - 0.0
20/06:30am 26.6 27.0 19.0 63 4.9 SSE 15 19 8 10 1012.2 - 0.0
20/06:00am 26.8 28.0 19.9 66 4.5 SSE 13 17 7 9 1011.9 1011.9 0.0
20/05:30am 26.8 27.5 19.7 65 4.6 SSE 15 17 8 9 1011.7 - 0.0
20/05:00am 27.1 27.3 19.4 62 5.0 SSE 17 19 9 10 1011.6 - 0.0
20/04:30am 27.0 28.2 20.6 68 4.2 S 15 19 8 10 1011.4 - 0.0
20/04:00am 26.8 28.6 21.1 71 3.8 S 13 17 7 9 1011.3 - 0.0
20/03:30am 27.0 28.5 22.0 74 3.4 S 17 19 9 10 1011.3 - 0.0
20/03:00am 27.1 28.8 22.3 75 3.2 S 17 20 9 11 1011.4 1011.4 0.0
20/02:30am 26.5 30.1 23.0 81 2.4 S 9 11 5 6 1011.3 - 0.0
20/02:00am 24.9 28.2 21.4 81 2.3 SW 6 9 3 5 1011.6 - 0.0
20/01:30am 25.4 28.5 22.1 82 2.2 SW 9 11 5 6 1011.7 - 0.0
20/01:00am 24.3 27.1 21.6 85 1.8 SSW 9 11 5 6 1011.8 - 0.0
20/12:30am 23.8 26.7 21.1 85 1.8 WSW 7 7 4 4 1011.7 - 0.0
20/12:00am 23.7 26.1 20.8 84 1.9 WSW 9 9 5 5 1011.7 1011.7 0.0
 
Date/Time
WST
Temp
°C
App
Temp
°C
Dew
Point
Rel
Hum
%
Delta-T
°C
Wind Press
QNH
hPa
Press
MSL
hPa
Rain
since 9 am
mm
Dir
 
Spd
km/h
Gust
km/h
Spd
kts
Gust
kts
19/11:30pm 23.8 26.0 20.5 82 2.1 SW 9 9 5 5 1011.9 - 0.0
19/11:00pm 23.7 25.8 20.2 81 2.3 SW 9 9 5 5 1011.9 - 0.0
19/10:30pm 24.2 26.8 20.5 80 2.4 WSW 7 9 4 5 1012.1 - 0.0
19/10:00pm 24.4 26.6 20.3 78 2.7 SW 9 9 5 5 1012.2 - 0.0
19/09:30pm 24.8 27.2 20.1 75 3.0 SW 7 9 4 5 1012.3 - 0.0
19/09:00pm 25.3 27.6 19.4 70 3.8 SW 6 7 3 4 1012.4 1012.4 0.0
19/08:30pm 25.5 26.6 18.9 67 4.2 W 11 13 6 7 1012.3 - 0.0
19/08:00pm 26.4 27.2 19.0 63 4.7 W 13 15 7 8 1012.0 - 0.0
19/07:30pm 26.8 27.0 17.6 57 5.8 W 13 15 7 8 1011.7 - 0.0
19/07:00pm 27.3 26.5 15.0 47 7.4 W 13 13 7 7 1011.4 - 0.0
19/06:30pm 28.6 26.4 10.8 33 10.1 W 13 15 7 8 1011.1 - 0.0
19/06:00pm 31.3 28.6 8.9 25 12.5 WNW 13 17 7 9 1010.8 1010.8 0.0
19/05:30pm 33.3 29.3 6.6 19 14.5 NW 17 20 9 11 1010.7 - 0.0
19/05:00pm 33.1 29.7 10.4 25 13.1 WSW 19 20 10 11 1010.6 - 0.0
19/04:30pm 32.7 31.8 11.3 27 12.5 SSE 7 9 4 5 1010.7 - 0.0
19/04:00pm 31.9 32.4 16.6 39 9.6 SW 9 13 5 7 1010.7 - 0.0
19/03:30pm 31.7 31.9 16.8 40 9.4 SSE 11 13 6 7 1010.9 - 0.0
19/03:00pm 32.0 32.5 17.5 42 9.3 SE 11 13 6 7 1010.8 1010.8 0.0
19/02:30pm 31.7 32.1 17.2 42 9.2 SSE 11 13 6 7 1011.0 - 0.0
19/02:00pm 31.3 32.6 17.2 42 8.9 ESE 6 7 3 4 1011.4 - 0.0
19/01:30pm 31.4 32.0 16.9 41 9.2 SE 9 9 5 5 1011.6 - 0.0
19/01:00pm 31.3 32.2 17.6 44 8.7 SE 9 11 5 6 1012.0 - 0.0
19/12:30pm 31.6 32.1 17.5 43 9.0 SE 11 13 6 7 1012.5 - 0.0
19/12:00pm 31.6 31.9 17.1 41 9.2 SE 11 13 6 7 1013.1 1013.1 0.0
19/11:30am 31.7 31.7 17.2 42 9.2 SE 13 15 7 8 1013.5 - 0.0
19/11:00am 31.4 30.5 15.8 39 9.7 SE 15 17 8 9 1013.8 - 0.0
19/10:30am 31.0 30.8 17.7 45 8.5 SE 15 17 8 9 1014.1 - 0.0
19/10:00am 30.9 29.2 15.7 39 9.4 SE 19 20 10 11 1014.4 - 0.0
19/09:30am 30.3 28.6 14.8 39 9.5 SE 17 19 9 10 1014.4 - 0.0
19/09:00am 29.9 28.8 16.3 43 8.5 SE 17 20 9 11 1014.6 1014.6 0.0
19/08:30am 29.4 27.9 16.2 44 8.2 SE 19 22 10 12 1014.6 - 0.0
19/08:00am 28.4 27.7 17.3 51 7.0 SSE 17 20 9 11 1014.5 - 0.0
19/07:30am 28.2 26.8 16.5 49 7.3 SE 19 20 10 11 1014.2 - 0.0
19/07:00am 27.2 26.1 17.4 55 6.2 SSE 19 20 10 11 1014.0 - 0.0
19/06:30am 26.9 25.4 16.8 54 6.3 SSE 20 22 11 12 1013.9 - 0.0
19/06:00am 26.9 25.8 17.4 56 6.0 SSE 19 22 10 12 1013.6 1013.6 0.0
19/05:30am 27.2 26.1 17.7 56 6.0 S 20 24 11 13 1013.5 - 0.0
19/05:00am 27.1 26.2 17.8 56 5.9 SSE 19 20 10 11 1013.4 - 0.0
19/04:30am 27.1 26.9 18.4 59 5.5 SSE 17 19 9 10 1013.6 - 0.0
19/04:00am 27.1 26.7 18.9 61 5.3 SSE 19 20 10 11 1013.7 - 0.0
19/03:30am 27.0 28.0 21.1 70 3.9 SSE 17 19 9 10 1013.8 - 0.0
19/03:00am 26.6 28.3 21.6 74 3.3 SE 15 17 8 9 1013.8 1013.8 0.0
19/02:30am 26.7 28.6 22.1 76 3.1 SE 15 17 8 9 1014.0 - 0.0
19/02:00am 27.1 28.5 21.8 73 3.5 SSE 17 17 9 9 1014.1 - 0.0
19/01:30am 26.8 29.5 22.2 76 3.1 SE 11 15 6 8 1014.3 - 0.0
19/01:00am 26.9 29.1 21.9 74 3.3 SSE 13 15 7 8 1014.3 - 0.0
19/12:30am 27.1 29.2 22.5 76 3.1 S 15 17 8 9 1014.4 - 0.0
19/12:00am 25.9 29.1 22.4 81 2.4 SSW 9 13 5 7 1014.7 1014.7 0.0
 
Date/Time
WST
Temp
°C
App
Temp
°C
Dew
Point
Rel
Hum
%
Delta-T
°C
Wind Press
QNH
hPa
Press
MSL
hPa
Rain
since 9 am
mm
Dir
 
Spd
km/h
Gust
km/h
Spd
kts
Gust
kts
18/11:30pm 23.5 25.0 18.8 75 3.0 SW 9 11 5 6 1014.8 - 0.0
18/11:00pm 23.7 25.2 18.1 71 3.5 WSW 7 9 4 5 1014.9 - 0.0
18/10:30pm 24.0 24.7 18.0 69 3.8 WSW 11 11 6 6 1014.9 - 0.0
18/10:00pm 24.3 25.2 16.6 62 4.7 WSW 7 9 4 5 1015.0 - 0.0
18/09:30pm 24.4 24.5 15.6 58 5.3 WSW 9 11 5 6 1015.1 - 0.0
18/09:00pm 25.1 25.4 16.0 57 5.5 WSW 9 11 5 6 1014.9 1014.9 0.0
18/08:30pm 25.6 23.6 10.2 38 8.5 WSW 11 13 6 7 1014.6 - 0.0
18/08:00pm 25.9 24.1 8.0 32 9.6 WSW 7 9 4 5 1014.3 - 0.0
18/07:30pm 25.9 23.0 4.4 25 10.8 WNW 9 11 5 6 1014.0 - 0.0
18/07:00pm 26.9 23.5 4.0 23 11.5 NNW 11 13 6 7 1013.7 - 0.0
18/06:30pm 28.7 25.2 5.5 23 12.1 N 13 13 7 7 1013.6 - 0.0
18/06:00pm 29.7 26.7 7.6 25 12.0 N 13 17 7 9 1013.4 1013.4 0.0
18/05:30pm 31.0 27.4 9.8 27 12.0 NNE 19 22 10 12 1013.0 - 0.0
18/05:00pm 31.4 27.8 10.7 28 11.9 NNE 20 26 11 14 1012.6 - 0.0
18/04:30pm 31.3 30.6 16.5 41 9.3 NE 15 17 8 9 1012.5 - 0.0
18/04:00pm 31.4 30.2 12.7 32 11.1 ENE 11 15 6 8 1012.5 - 0.0
18/03:30pm 31.5 32.6 17.0 41 9.2 ESE 7 9 4 5 1012.5 - 0.0
18/03:00pm 32.1 31.6 12.8 30 11.5 E 7 9 4 5 1012.6 1012.6 0.0
18/02:30pm 32.2 32.3 16.5 39 9.9 SSE 11 13 6 7 1012.8 - 0.0
18/02:00pm 31.4 30.9 15.8 39 9.7 SSE 13 15 7 8 1012.9 - 0.0
18/01:30pm 32.0 31.7 15.5 37 10.2 SSE 11 13 6 7 1013.0 - 0.0
18/01:00pm 31.3 30.5 14.0 35 10.5 SSE 11 13 6 7 1013.2 - 0.0
18/12:30pm 31.6 30.6 14.7 36 10.3 SE 13 17 7 9 1013.6 - 0.0
18/12:00pm 31.6 30.9 16.3 39 9.6 SE 15 17 8 9 1013.9 1013.9 0.0
18/11:30am 30.9 30.5 16.1 41 9.2 SE 13 15 7 8 1014.5 - 0.0
18/11:00am 29.6 29.0 15.7 43 8.6 ESE 13 15 7 8 1014.7 - 0.0
18/10:30am 30.1 29.4 16.5 44 8.5 ESE 15 19 8 10 1014.8 - 0.0
18/10:00am 29.5 28.7 17.0 47 7.9 ESE 17 20 9 11 1015.0 - 0.0
18/09:30am 29.1 27.9 17.0 48 7.6 ESE 19 20 10 11 1015.0 - 0.0
18/09:00am 29.1 28.0 17.3 49 7.4 SE 19 22 10 12 1015.1 1015.1 0.0
18/08:30am 28.9 28.0 16.8 48 7.6 SE 17 19 9 10 1015.0 - 0.0
18/08:00am 28.2 27.1 17.4 52 6.8 SE 19 20 10 11 1014.8 - 0.0
18/07:30am 27.3 26.3 17.5 55 6.2 SE 19 20 10 11 1014.6 - 0.0
18/07:00am 26.5 25.9 18.4 61 5.2 SE 19 20 10 11 1014.2 - 0.0
18/06:30am 26.0 25.7 18.2 62 4.9 SE 17 19 9 10 1014.1 - 0.0
18/06:00am 26.1 26.2 19.2 65 4.4 SE 17 19 9 10 1014.1 1014.1 0.0
18/05:30am 26.3 27.5 20.6 71 3.7 SE 15 19 8 10 1014.0 - 0.0
18/05:00am 26.4 27.6 20.7 71 3.7 SSE 15 19 8 10 1013.9 - 0.0
18/04:30am 26.8 27.4 20.2 67 4.3 SSE 17 20 9 11 1013.7 - 0.0
18/04:00am 26.8 27.6 19.9 66 4.5 SSE 15 17 8 9 1013.7 - 0.0
18/03:30am 26.6 28.0 19.5 65 4.6 SSE 11 13 6 7 1013.8 - 0.0
18/03:00am 26.7 27.9 19.8 66 4.5 SSE 13 17 7 9 1013.7 1013.7 0.0
18/02:30am 26.9 27.9 20.3 67 4.3 S 15 17 8 9 1013.8 - 0.0
18/02:00am 26.8 28.0 19.9 66 4.5 SSE 13 15 7 8 1014.0 - 0.0
18/01:30am 27.0 27.8 19.9 65 4.6 SSE 15 15 8 8 1014.2 - 0.0
18/01:00am 27.0 27.8 19.9 65 4.6 S 15 17 8 9 1014.7 - 0.0
18/12:30am 27.3 28.0 20.4 66 4.5 S 17 19 9 10 1015.0 - 0.0
18/12:00am 27.5 28.0 20.1 64 4.8 S 17 19 9 10 1015.3 1015.3 0.0
 
Date/Time
WST
Temp
°C
App
Temp
°C
Dew
Point
Rel
Hum
%
Delta-T
°C
Wind Press
QNH
hPa
Press
MSL
hPa
Rain
since 9 am
mm
Dir
 
Spd
km/h
Gust
km/h
Spd
kts
Gust
kts
17/11:30pm 27.4 27.5 20.0 64 4.8 S 19 20 10 11 1015.3 - 0.0
17/11:00pm 25.6 28.0 20.8 75 3.2 SW 9 13 5 7 1015.4 - 0.0
17/10:30pm 25.3 27.4 19.4 70 3.8 SSW 7 15 4 8 1015.4 - 0.0
17/10:00pm 23.5 22.7 13.9 55 5.6 N 11 11 6 6 1014.9 - 0.0
17/09:30pm 23.4 23.1 12.7 51 6.1 NW 6 7 3 4 1015.0 - 0.0
17/09:00pm 24.9 26.3 17.9 65 4.4 WSW 7 9 4 5 1014.7 1014.7 0.0
17/08:30pm 25.0 25.4 16.4 59 5.3 W 9 11 5 6 1014.7 - 0.0
17/08:00pm 25.7 26.9 19.1 67 4.2 W 11 13 6 7 1014.5 - 0.0
17/07:30pm 26.1 26.9 17.2 58 5.5 WSW 9 11 5 6 1014.1 - 0.0

Other Formats:

Comma delimited format used in spreadsheet applications
http://www.bom.gov.au/fwo/IDW60801/IDW60801.95304.axf

JavaScript Object Notation format (JSON) in row-major order
http://www.bom.gov.au/fwo/IDW60801/IDW60801.95304.json